BRU6767 UMMS-LTFM
Flight info
| Callsign | BRU6767 |
|---|---|
| Flight time | N/A |
| Altitude | 39000 |
| Route | SORFO2F SORFO L979 ASKIL L736 LODKU M56 ABAGI B105 NIMTA/K0874F380 B105 NATIT/K0876F370 DCT MOLED N50 LIDUS G242 ZG DCT ITAKA/K0887F360 DCT KUDAS DCT LURIS/N0479F360 DCT SARPI UG67 TBN UM11 CRM UL746 GOKPA UM10 HAKAN UT315 NUGBA NUGB1D |
| Aircraft | A332/H-SDE3GHIJ2J3J5M1RVWXY/LB2D1 |
Departure
| Time | 2026-05-04 14:17 |
|---|---|
| Airport | Minsk National Airport (UMMS) |
Arrival
| Time | N/A |
|---|---|
| Airport | İstanbul Airport (LTFM) |
| Time | Latitude | Longitude | Altitude | Speed | Heading |
|---|---|---|---|---|---|
| 2026-05-04 13:46 | 53.88963 | 28.03013 | 678 ft | 0 kts | 48° |
| 2026-05-04 14:06 | 53.88963 | 28.03012 | 678 ft | 0 kts | 48° |
| 2026-05-04 14:06 | 53.88950 | 28.02988 | 678 ft | 2 kts | 48° |
| 2026-05-04 14:07 | 53.88940 | 28.02969 | 678 ft | 2 kts | 52° |
| 2026-05-04 14:07 | 53.88934 | 28.02955 | 678 ft | 2 kts | 68° |
| 2026-05-04 14:07 | 53.88930 | 28.02931 | 678 ft | 2 kts | 86° |
| 2026-05-04 14:07 | 53.88932 | 28.02897 | 678 ft | 2 kts | 110° |
| 2026-05-04 14:08 | 53.88938 | 28.02874 | 678 ft | 2 kts | 128° |
| 2026-05-04 14:08 | 53.88944 | 28.02863 | 678 ft | 0 kts | 139° |
| 2026-05-04 14:08 | 53.88947 | 28.02859 | 678 ft | 0 kts | 139° |
| 2026-05-04 14:10 | 53.88943 | 28.02865 | 678 ft | 1 kts | 136° |
| 2026-05-04 14:10 | 53.88925 | 28.02894 | 678 ft | 6 kts | 136° |
| 2026-05-04 14:11 | 53.88882 | 28.02962 | 678 ft | 10 kts | 137° |
| 2026-05-04 14:11 | 53.88733 | 28.03188 | 678 ft | 18 kts | 138° |
| 2026-05-04 14:11 | 53.88600 | 28.03413 | 678 ft | 20 kts | 104° |
| 2026-05-04 14:12 | 53.88635 | 28.03549 | 678 ft | 20 kts | 53° |
| 2026-05-04 14:12 | 53.88739 | 28.03746 | 678 ft | 25 kts | 48° |
| 2026-05-04 14:12 | 53.89026 | 28.04305 | 678 ft | 37 kts | 48° |
| 2026-05-04 14:13 | 53.89058 | 28.04571 | 678 ft | 19 kts | 64° |
| 2026-05-04 14:13 | 53.89154 | 28.04781 | 678 ft | 25 kts | 47° |
| 2026-05-04 14:13 | 53.89069 | 28.05097 | 678 ft | 30 kts | 138° |
| 2026-05-04 14:13 | 53.88952 | 28.05266 | 678 ft | 35 kts | 138° |
| 2026-05-04 14:14 | 53.88739 | 28.05579 | 678 ft | 44 kts | 140° |
| 2026-05-04 14:14 | 53.88189 | 28.06393 | 678 ft | 60 kts | 139° |
| 2026-05-04 14:14 | 53.87954 | 28.06827 | 677 ft | 26 kts | 77° |
| 2026-05-04 14:15 | 53.88102 | 28.06923 | 677 ft | 0 kts | 316° |
| 2026-05-04 14:16 | 53.88111 | 28.06908 | 677 ft | 10 kts | 316° |
| 2026-05-04 14:16 | 53.88342 | 28.06557 | 678 ft | 81 kts | 319° |
| 2026-05-04 14:17 | 53.89791 | 28.04416 | 1019 ft | 166 kts | 313° |
| 2026-05-04 14:17 | 53.90615 | 28.03161 | 1746 ft | 160 kts | 312° |
| 2026-05-04 14:17 | 53.92742 | 28.00004 | 2688 ft | 187 kts | 313° |
| 2026-05-04 14:18 | 53.93396 | 27.99039 | 3030 ft | 189 kts | 313° |
| 2026-05-04 14:18 | 53.95743 | 27.96008 | 4016 ft | 259 kts | 335° |
| 2026-05-04 14:19 | 54.00652 | 27.97419 | 5380 ft | 380 kts | 30° |
| 2026-05-04 14:19 | 54.02082 | 27.99021 | 6772 ft | 382 kts | 32° |
| 2026-05-04 14:19 | 54.04239 | 28.01527 | 8785 ft | 389 kts | 32° |
| 2026-05-04 14:19 | 54.07180 | 28.05018 | 11215 ft | 400 kts | 33° |
| 2026-05-04 14:20 | 54.08671 | 28.07043 | 12047 ft | 414 kts | 39° |
| 2026-05-04 14:20 | 54.10752 | 28.10425 | 13572 ft | 423 kts | 44° |
| 2026-05-04 14:20 | 54.12695 | 28.14198 | 14919 ft | 434 kts | 49° |
| 2026-05-04 14:21 | 54.16414 | 28.22289 | 17021 ft | 442 kts | 51° |
| 2026-05-04 14:21 | 54.18157 | 28.26761 | 17579 ft | 452 kts | 57° |
| 2026-05-04 14:21 | 54.19764 | 28.31340 | 18033 ft | 452 kts | 58° |
| 2026-05-04 14:21 | 54.21755 | 28.37385 | 18126 ft | 426 kts | 61° |
| 2026-05-04 14:22 | 54.22535 | 28.40397 | 17826 ft | 412 kts | 72° |
| 2026-05-04 14:22 | 54.22850 | 28.44958 | 18011 ft | 365 kts | 96° |
| 2026-05-04 14:22 | 54.22242 | 28.48842 | 18512 ft | 324 kts | 118° |
| 2026-05-04 14:22 | 54.21501 | 28.52413 | 19043 ft | 320 kts | 97° |
| 2026-05-04 14:23 | 54.22377 | 28.59523 | 20132 ft | 302 kts | 71° |
| 2026-05-04 14:23 | 54.22994 | 28.62874 | 20624 ft | 295 kts | 72° |
| 2026-05-04 14:23 | 54.23775 | 28.67279 | 21276 ft | 286 kts | 73° |
| 2026-05-04 14:24 | 54.24152 | 28.69422 | 21612 ft | 287 kts | 73° |
| 2026-05-04 14:24 | 54.24741 | 28.72794 | 21964 ft | 304 kts | 73° |
| 2026-05-04 14:24 | 54.25342 | 28.76227 | 22224 ft | 300 kts | 73° |
| 2026-05-04 14:24 | 54.26141 | 28.80844 | 22398 ft | 307 kts | 73° |
| 2026-05-04 14:25 | 54.26549 | 28.83209 | 22500 ft | 310 kts | 73° |
| 2026-05-04 14:25 | 54.27776 | 28.90326 | 22791 ft | 318 kts | 73° |
| 2026-05-04 14:25 | 54.28405 | 28.93990 | 22932 ft | 322 kts | 74° |
| 2026-05-04 14:26 | 54.29037 | 28.97677 | 23071 ft | 325 kts | 73° |
| 2026-05-04 14:26 | 54.29660 | 29.01362 | 23212 ft | 328 kts | 77° |
| 2026-05-04 14:26 | 54.30103 | 29.05192 | 23357 ft | 330 kts | 80° |
| 2026-05-04 14:26 | 54.30523 | 29.09105 | 23499 ft | 333 kts | 80° |
| 2026-05-04 14:27 | 54.30942 | 29.12982 | 23637 ft | 335 kts | 80° |
| 2026-05-04 14:27 | 54.31369 | 29.16934 | 23777 ft | 338 kts | 80° |
| 2026-05-04 14:27 | 54.31794 | 29.20874 | 23915 ft | 340 kts | 80° |
| 2026-05-04 14:27 | 54.32363 | 29.26177 | 24101 ft | 342 kts | 80° |
| 2026-05-04 14:28 | 54.32649 | 29.28851 | 24195 ft | 344 kts | 80° |
| 2026-05-04 14:28 | 54.33081 | 29.32896 | 24337 ft | 345 kts | 80° |
| 2026-05-04 14:28 | 54.33509 | 29.36918 | 24476 ft | 347 kts | 80° |
| 2026-05-04 14:28 | 54.33938 | 29.41000 | 24615 ft | 348 kts | 80° |
| 2026-05-04 14:29 | 54.34793 | 29.49170 | 24900 ft | 350 kts | 80° |
| 2026-05-04 14:29 | 54.35646 | 29.57378 | 25175 ft | 351 kts | 80° |
| 2026-05-04 14:30 | 54.36069 | 29.61458 | 25308 ft | 352 kts | 80° |
| 2026-05-04 14:30 | 54.36500 | 29.65588 | 25441 ft | 353 kts | 81° |
| 2026-05-04 14:30 | 54.37356 | 29.73835 | 25698 ft | 354 kts | 81° |
| 2026-05-04 14:31 | 54.37788 | 29.78031 | 25828 ft | 354 kts | 81° |
| 2026-05-04 14:31 | 54.38636 | 29.86290 | 26082 ft | 355 kts | 81° |
| 2026-05-04 14:32 | 54.39486 | 29.94635 | 26343 ft | 355 kts | 81° |
| 2026-05-04 14:32 | 54.39908 | 29.98820 | 26582 ft | 360 kts | 81° |
| 2026-05-04 14:32 | 54.40342 | 30.03139 | 26762 ft | 372 kts | 81° |
| 2026-05-04 14:32 | 54.40786 | 30.07580 | 26923 ft | 384 kts | 81° |
| 2026-05-04 14:33 | 54.41241 | 30.12136 | 27087 ft | 396 kts | 81° |
| 2026-05-04 14:33 | 54.41707 | 30.16834 | 27248 ft | 408 kts | 81° |
| 2026-05-04 14:33 | 54.42191 | 30.21718 | 27408 ft | 419 kts | 81° |
| 2026-05-04 14:33 | 54.42842 | 30.28358 | 27622 ft | 434 kts | 81° |
| 2026-05-04 14:34 | 54.43180 | 30.31849 | 27729 ft | 441 kts | 81° |
| 2026-05-04 14:34 | 54.43686 | 30.37088 | 27885 ft | 451 kts | 81° |
| 2026-05-04 14:34 | 54.44197 | 30.42421 | 28041 ft | 461 kts | 81° |
| 2026-05-04 14:34 | 54.44901 | 30.49797 | 28245 ft | 474 kts | 80° |
| 2026-05-04 14:35 | 54.45261 | 30.53581 | 28344 ft | 480 kts | 81° |
| 2026-05-04 14:35 | 54.45803 | 30.59310 | 28561 ft | 487 kts | 80° |
| 2026-05-04 14:35 | 54.46342 | 30.65042 | 28956 ft | 489 kts | 81° |
| 2026-05-04 14:35 | 54.46888 | 30.70877 | 29426 ft | 489 kts | 81° |
| 2026-05-04 14:36 | 54.47422 | 30.76624 | 29875 ft | 489 kts | 81° |
| 2026-05-04 14:36 | 54.47961 | 30.82447 | 30431 ft | 488 kts | 81° |
| 2026-05-04 14:36 | 54.48492 | 30.88214 | 30999 ft | 485 kts | 81° |
| 2026-05-04 14:36 | 54.49022 | 30.94006 | 31507 ft | 484 kts | 81° |
| 2026-05-04 14:37 | 54.49536 | 30.99657 | 31967 ft | 483 kts | 81° |
| 2026-05-04 14:37 | 54.50050 | 31.05325 | 32417 ft | 482 kts | 81° |
| 2026-05-04 14:37 | 54.50558 | 31.11067 | 32869 ft | 480 kts | 81° |
| 2026-05-04 14:37 | 54.51197 | 31.18548 | 33417 ft | 479 kts | 81° |
| 2026-05-04 14:38 | 54.51681 | 31.24251 | 33824 ft | 478 kts | 81° |
| 2026-05-04 14:38 | 54.51995 | 31.27960 | 34092 ft | 477 kts | 81° |
| 2026-05-04 14:38 | 54.52470 | 31.33621 | 34529 ft | 475 kts | 81° |
| 2026-05-04 14:38 | 54.52941 | 31.39241 | 34891 ft | 475 kts | 81° |
| 2026-05-04 14:39 | 54.53404 | 31.44797 | 35198 ft | 474 kts | 81° |
| 2026-05-04 14:39 | 54.53869 | 31.50417 | 35538 ft | 473 kts | 81° |
| 2026-05-04 14:39 | 54.54330 | 31.56033 | 35838 ft | 473 kts | 81° |
| 2026-05-04 14:40 | 54.55242 | 31.67227 | 36420 ft | 471 kts | 81° |
| 2026-05-04 14:40 | 54.55690 | 31.72768 | 36651 ft | 471 kts | 81° |
| 2026-05-04 14:40 | 54.56137 | 31.78333 | 36953 ft | 471 kts | 81° |
| 2026-05-04 14:40 | 54.56584 | 31.83933 | 37249 ft | 470 kts | 81° |
| 2026-05-04 14:41 | 54.57025 | 31.89495 | 37492 ft | 471 kts | 81° |
| 2026-05-04 14:41 | 54.57465 | 31.95075 | 37708 ft | 471 kts | 81° |
| 2026-05-04 14:41 | 54.58331 | 32.06144 | 38378 ft | 468 kts | 81° |
| 2026-05-04 14:42 | 54.59191 | 32.17285 | 38784 ft | 468 kts | 81° |
| 2026-05-04 14:42 | 54.59611 | 32.22772 | 38942 ft | 469 kts | 81° |
| 2026-05-04 14:42 | 54.60039 | 32.28407 | 38856 ft | 474 kts | 81° |
| 2026-05-04 14:43 | 54.60886 | 32.39654 | 38884 ft | 479 kts | 81° |
| 2026-05-04 14:43 | 54.61877 | 32.53004 | 38890 ft | 483 kts | 81° |
| 2026-05-04 14:44 | 54.62577 | 32.62566 | 38945 ft | 485 kts | 81° |
| 2026-05-04 14:44 | 54.63409 | 32.74058 | 38921 ft | 487 kts | 82° |
| 2026-05-04 14:45 | 54.64240 | 32.85682 | 38891 ft | 488 kts | 82° |
| 2026-05-04 14:45 | 54.65056 | 32.97269 | 38866 ft | 490 kts | 82° |
| 2026-05-04 14:46 | 54.65864 | 33.08902 | 38883 ft | 490 kts | 82° |
| 2026-05-04 14:46 | 54.66658 | 33.20517 | 38930 ft | 490 kts | 82° |
| 2026-05-04 14:47 | 54.67446 | 33.32185 | 38924 ft | 489 kts | 82° |
| 2026-05-04 14:47 | 54.68218 | 33.43808 | 38912 ft | 489 kts | 82° |
| 2026-05-04 14:48 | 54.68984 | 33.55502 | 38896 ft | 490 kts | 82° |
| 2026-05-04 14:48 | 54.69734 | 33.67122 | 38918 ft | 490 kts | 82° |
| 2026-05-04 14:49 | 54.70241 | 33.78845 | 38896 ft | 490 kts | 92° |
| 2026-05-04 14:49 | 54.69867 | 33.90564 | 38857 ft | 492 kts | 92° |
| 2026-05-04 14:50 | 54.69517 | 34.02330 | 38877 ft | 492 kts | 92° |
| 2026-05-04 14:50 | 54.69158 | 34.14106 | 38897 ft | 492 kts | 92° |
| 2026-05-04 14:51 | 54.68789 | 34.25853 | 38916 ft | 492 kts | 92° |
| 2026-05-04 14:51 | 54.68407 | 34.37640 | 38923 ft | 492 kts | 91° |
| 2026-05-04 14:52 | 54.68017 | 34.49343 | 38912 ft | 491 kts | 92° |
| 2026-05-04 14:52 | 54.67614 | 34.61084 | 38883 ft | 492 kts | 91° |
| 2026-05-04 14:53 | 54.67197 | 34.72890 | 38912 ft | 492 kts | 92° |
| 2026-05-04 14:53 | 54.66772 | 34.84588 | 38931 ft | 491 kts | 92° |
| 2026-05-04 14:54 | 54.66332 | 34.96404 | 38913 ft | 491 kts | 92° |
| 2026-05-04 14:54 | 54.65883 | 35.08133 | 38880 ft | 491 kts | 92° |
| 2026-05-04 14:55 | 54.65427 | 35.19776 | 38881 ft | 492 kts | 92° |
| 2026-05-04 14:55 | 54.64956 | 35.31501 | 38928 ft | 491 kts | 92° |
| 2026-05-04 14:56 | 54.64474 | 35.43221 | 38945 ft | 490 kts | 92° |
| 2026-05-04 14:56 | 54.63981 | 35.54925 | 38904 ft | 490 kts | 92° |
| 2026-05-04 14:57 | 54.63477 | 35.66598 | 38898 ft | 491 kts | 93° |
| 2026-05-04 14:57 | 54.62960 | 35.78334 | 38907 ft | 491 kts | 93° |
| 2026-05-04 14:58 | 54.62433 | 35.90015 | 38915 ft | 491 kts | 93° |
| 2026-05-04 14:58 | 54.61896 | 36.01687 | 38903 ft | 491 kts | 93° |
| 2026-05-04 14:59 | 54.61346 | 36.13394 | 38901 ft | 491 kts | 93° |
| 2026-05-04 15:00 | 54.60500 | 36.30928 | 38919 ft | 491 kts | 93° |
| 2026-05-04 15:00 | 54.59921 | 36.42646 | 38924 ft | 490 kts | 93° |
| 2026-05-04 15:01 | 54.59036 | 36.60115 | 38930 ft | 490 kts | 92° |
| 2026-05-04 15:01 | 54.58328 | 36.73722 | 38931 ft | 490 kts | 94° |
| 2026-05-04 15:02 | 54.57816 | 36.83416 | 38912 ft | 490 kts | 94° |
| 2026-05-04 15:02 | 54.57188 | 36.95071 | 38910 ft | 490 kts | 94° |
| 2026-05-04 15:03 | 54.56549 | 37.06723 | 38922 ft | 490 kts | 94° |
| 2026-05-04 15:03 | 54.55898 | 37.18402 | 38913 ft | 490 kts | 94° |
| 2026-05-04 15:04 | 54.55239 | 37.29994 | 38917 ft | 490 kts | 94° |
| 2026-05-04 15:04 | 54.54565 | 37.41665 | 38932 ft | 490 kts | 94° |
| 2026-05-04 15:05 | 54.53883 | 37.53283 | 38929 ft | 490 kts | 94° |
| 2026-05-04 15:05 | 54.53192 | 37.64866 | 38926 ft | 490 kts | 94° |
| 2026-05-04 15:06 | 54.52483 | 37.76535 | 38931 ft | 490 kts | 94° |
| 2026-05-04 15:07 | 54.51404 | 37.93969 | 38929 ft | 490 kts | 94° |
| 2026-05-04 15:07 | 54.50673 | 38.05550 | 38931 ft | 490 kts | 94° |
| 2026-05-04 15:08 | 54.49929 | 38.17137 | 38931 ft | 490 kts | 94° |
| 2026-05-04 15:08 | 54.48602 | 38.28670 | 38935 ft | 491 kts | 101° |
| 2026-05-04 15:09 | 54.47128 | 38.40036 | 38927 ft | 491 kts | 100° |
| 2026-05-04 15:09 | 54.45637 | 38.51469 | 38929 ft | 491 kts | 101° |
| 2026-05-04 15:10 | 54.43385 | 38.68566 | 38926 ft | 491 kts | 101° |
| 2026-05-04 15:11 | 54.41111 | 38.85621 | 38930 ft | 490 kts | 101° |
| 2026-05-04 15:11 | 54.39587 | 38.96943 | 38930 ft | 490 kts | 101° |
| 2026-05-04 15:12 | 54.37572 | 39.08022 | 38943 ft | 491 kts | 112° |
| 2026-05-04 15:12 | 54.34934 | 39.18824 | 38922 ft | 492 kts | 111° |
| 2026-05-04 15:13 | 54.32332 | 39.29602 | 38925 ft | 492 kts | 111° |
| 2026-05-04 15:13 | 54.29702 | 39.40438 | 38932 ft | 492 kts | 111° |
| 2026-05-04 15:14 | 54.27090 | 39.51146 | 38927 ft | 492 kts | 111° |
| 2026-05-04 15:14 | 54.24451 | 39.61914 | 38921 ft | 492 kts | 111° |
| 2026-05-04 15:15 | 54.21798 | 39.72690 | 38926 ft | 492 kts | 112° |
| 2026-05-04 15:15 | 54.19139 | 39.83433 | 38935 ft | 492 kts | 112° |
| 2026-05-04 15:16 | 54.15139 | 39.99499 | 38906 ft | 493 kts | 112° |
| 2026-05-04 15:17 | 54.11236 | 40.15597 | 38914 ft | 490 kts | 105° |
| 2026-05-04 15:17 | 54.08423 | 40.32249 | 38929 ft | 490 kts | 105° |
| 2026-05-04 15:18 | 54.06488 | 40.43358 | 38921 ft | 490 kts | 105° |
| 2026-05-04 15:19 | 54.03567 | 40.59981 | 38928 ft | 490 kts | 105° |
| 2026-05-04 15:19 | 54.00624 | 40.76566 | 38931 ft | 491 kts | 106° |
| 2026-05-04 15:20 | 53.98645 | 40.87641 | 38938 ft | 492 kts | 106° |
| 2026-05-04 15:20 | 53.96655 | 40.98712 | 38942 ft | 492 kts | 106° |
| 2026-05-04 15:21 | 53.94741 | 41.09860 | 38932 ft | 491 kts | 104° |
| 2026-05-04 15:21 | 53.92574 | 41.20784 | 38899 ft | 492 kts | 116° |
| 2026-05-04 15:22 | 53.90672 | 41.25591 | 38958 ft | 491 kts | 131° |
| 2026-05-04 15:22 | 53.88101 | 41.29400 | 38962 ft | 491 kts | 144° |
| 2026-05-04 15:22 | 53.82600 | 41.36139 | 38938 ft | 492 kts | 143° |
| 2026-05-04 15:23 | 53.77083 | 41.43051 | 38917 ft | 494 kts | 143° |
| 2026-05-04 15:23 | 53.70654 | 41.51097 | 38917 ft | 494 kts | 143° |
| 2026-05-04 15:24 | 53.60574 | 41.63652 | 38949 ft | 494 kts | 143° |
| 2026-05-04 15:25 | 53.55029 | 41.70525 | 38917 ft | 495 kts | 144° |
| 2026-05-04 15:26 | 53.46741 | 41.80757 | 38929 ft | 494 kts | 144° |
| 2026-05-04 15:26 | 53.38455 | 41.90936 | 38944 ft | 494 kts | 144° |
| 2026-05-04 15:27 | 53.30132 | 42.01110 | 38963 ft | 494 kts | 144° |
| 2026-05-04 15:28 | 53.21811 | 42.11230 | 38979 ft | 494 kts | 144° |
| 2026-05-04 15:29 | 53.13509 | 42.21281 | 38983 ft | 494 kts | 144° |
| 2026-05-04 15:30 | 52.94002 | 42.44699 | 38958 ft | 495 kts | 144° |
| 2026-05-04 15:31 | 52.85661 | 42.54631 | 38964 ft | 495 kts | 144° |
| 2026-05-04 15:32 | 52.71681 | 42.71173 | 38964 ft | 495 kts | 145° |
| 2026-05-04 15:34 | 52.57704 | 42.87577 | 38987 ft | 494 kts | 145° |
| 2026-05-04 15:34 | 52.49321 | 42.97354 | 38977 ft | 494 kts | 146° |
| 2026-05-04 15:35 | 52.40928 | 43.07096 | 38977 ft | 494 kts | 146° |
| 2026-05-04 15:36 | 52.32529 | 43.16797 | 38982 ft | 494 kts | 146° |
| 2026-05-04 15:36 | 52.26940 | 43.23229 | 38991 ft | 494 kts | 146° |
| 2026-05-04 15:37 | 52.21330 | 43.29663 | 39027 ft | 493 kts | 146° |
| 2026-05-04 15:37 | 52.15722 | 43.36074 | 39010 ft | 493 kts | 146° |
| 2026-05-04 15:38 | 52.10115 | 43.42465 | 38980 ft | 494 kts | 146° |
| 2026-05-04 15:38 | 52.04475 | 43.48875 | 39008 ft | 493 kts | 146° |
| 2026-05-04 15:39 | 51.98879 | 43.55214 | 39029 ft | 493 kts | 146° |
| 2026-05-04 15:40 | 51.90421 | 43.64757 | 39035 ft | 493 kts | 146° |
| 2026-05-04 15:40 | 51.84792 | 43.71084 | 39006 ft | 493 kts | 147° |
| 2026-05-04 15:41 | 51.79197 | 43.77351 | 38998 ft | 493 kts | 147° |
| 2026-05-04 15:41 | 51.73548 | 43.83661 | 39029 ft | 493 kts | 147° |
| 2026-05-04 15:42 | 51.67931 | 43.89916 | 39028 ft | 492 kts | 147° |
| 2026-05-04 15:42 | 51.62275 | 43.96195 | 38998 ft | 493 kts | 147° |
| 2026-05-04 15:43 | 51.56673 | 44.02394 | 39012 ft | 493 kts | 147° |
| 2026-05-04 15:43 | 51.51028 | 44.08624 | 39043 ft | 493 kts | 147° |
| 2026-05-04 15:44 | 51.45340 | 44.14880 | 39019 ft | 493 kts | 147° |
| 2026-05-04 15:44 | 51.39720 | 44.21043 | 38988 ft | 494 kts | 147° |
| 2026-05-04 15:45 | 51.33939 | 44.26988 | 39013 ft | 492 kts | 150° |
| 2026-05-04 15:45 | 51.28058 | 44.32561 | 39030 ft | 492 kts | 150° |
| 2026-05-04 15:46 | 51.22203 | 44.38091 | 38998 ft | 492 kts | 150° |
| 2026-05-04 15:46 | 51.16284 | 44.43665 | 38995 ft | 493 kts | 150° |
| 2026-05-04 15:47 | 51.10393 | 44.49194 | 39027 ft | 492 kts | 150° |
| 2026-05-04 15:47 | 51.04512 | 44.54699 | 39023 ft | 492 kts | 150° |
| 2026-05-04 15:48 | 50.98610 | 44.60208 | 38990 ft | 493 kts | 150° |
| 2026-05-04 15:48 | 50.89729 | 44.68464 | 38997 ft | 493 kts | 152° |
| 2026-05-04 15:49 | 50.83862 | 44.73897 | 38989 ft | 493 kts | 152° |
| 2026-05-04 15:49 | 50.77935 | 44.79372 | 39024 ft | 492 kts | 152° |
| 2026-05-04 15:50 | 50.72051 | 44.84790 | 39024 ft | 491 kts | 152° |
| 2026-05-04 15:50 | 50.66147 | 44.90210 | 38988 ft | 492 kts | 152° |
| 2026-05-04 15:51 | 50.60263 | 44.95597 | 38995 ft | 492 kts | 152° |
| 2026-05-04 15:51 | 50.54348 | 45.00996 | 39032 ft | 491 kts | 152° |
| 2026-05-04 15:52 | 50.48437 | 45.06376 | 39018 ft | 491 kts | 152° |
| 2026-05-04 15:52 | 50.42511 | 45.11752 | 38986 ft | 492 kts | 152° |
| 2026-05-04 15:53 | 50.36605 | 45.17094 | 38999 ft | 491 kts | 152° |
| 2026-05-04 15:53 | 50.30676 | 45.22443 | 39031 ft | 490 kts | 152° |
| 2026-05-04 15:54 | 50.24748 | 45.27777 | 39017 ft | 491 kts | 152° |
| 2026-05-04 15:54 | 50.18837 | 45.33077 | 38983 ft | 491 kts | 152° |
| 2026-05-04 15:55 | 50.12934 | 45.38357 | 39001 ft | 491 kts | 152° |
| 2026-05-04 15:55 | 50.07010 | 45.43641 | 39032 ft | 490 kts | 152° |
| 2026-05-04 15:56 | 50.01073 | 45.48918 | 39005 ft | 491 kts | 152° |
| 2026-05-04 15:56 | 49.95173 | 45.54149 | 38994 ft | 491 kts | 152° |
| 2026-05-04 15:57 | 49.89244 | 45.59391 | 39033 ft | 491 kts | 152° |
| 2026-05-04 15:57 | 49.83317 | 45.64616 | 39002 ft | 491 kts | 152° |
| 2026-05-04 15:58 | 49.77380 | 45.69836 | 39021 ft | 491 kts | 152° |
| 2026-05-04 15:58 | 49.71413 | 45.75068 | 39024 ft | 490 kts | 153° |
| 2026-05-04 15:59 | 49.65495 | 45.80240 | 39028 ft | 490 kts | 153° |
| 2026-05-04 15:59 | 49.59560 | 45.85413 | 39007 ft | 490 kts | 153° |
| 2026-05-04 16:00 | 49.53616 | 45.90580 | 39000 ft | 490 kts | 153° |
| 2026-05-04 16:00 | 49.47695 | 45.95712 | 39032 ft | 489 kts | 153° |
| 2026-05-04 16:01 | 49.41775 | 46.00829 | 39010 ft | 489 kts | 153° |
| 2026-05-04 16:01 | 49.35846 | 46.05937 | 38989 ft | 490 kts | 153° |
| 2026-05-04 16:02 | 49.29903 | 46.11046 | 39018 ft | 489 kts | 153° |
| 2026-05-04 16:03 | 49.20992 | 46.18679 | 39001 ft | 489 kts | 153° |
| 2026-05-04 16:03 | 49.15085 | 46.23721 | 39041 ft | 488 kts | 153° |
| 2026-05-04 16:04 | 49.09162 | 46.28764 | 39007 ft | 488 kts | 153° |
| 2026-05-04 16:04 | 49.00252 | 46.36321 | 38995 ft | 488 kts | 153° |
| 2026-05-04 16:05 | 48.94323 | 46.41333 | 38994 ft | 487 kts | 153° |
| 2026-05-04 16:06 | 48.85469 | 46.48792 | 38985 ft | 487 kts | 153° |
| 2026-05-04 16:07 | 48.73608 | 46.58738 | 39009 ft | 484 kts | 153° |
| 2026-05-04 16:08 | 48.61824 | 46.68565 | 38973 ft | 484 kts | 154° |
| 2026-05-04 16:09 | 48.47131 | 46.80744 | 38984 ft | 482 kts | 154° |
| 2026-05-04 16:10 | 48.35355 | 46.90446 | 39001 ft | 481 kts | 154° |
| 2026-05-04 16:11 | 48.23649 | 47.00041 | 38973 ft | 481 kts | 154° |
| 2026-05-04 16:12 | 48.06061 | 47.14362 | 38954 ft | 479 kts | 154° |
| 2026-05-04 16:13 | 47.94371 | 47.23819 | 39000 ft | 477 kts | 154° |
| 2026-05-04 16:14 | 47.82687 | 47.33221 | 38965 ft | 478 kts | 154° |
| 2026-05-04 16:16 | 47.68073 | 47.44915 | 38973 ft | 477 kts | 154° |
| 2026-05-04 16:17 | 47.53468 | 47.56525 | 38790 ft | 473 kts | 154° |
| 2026-05-04 16:18 | 47.44887 | 47.63312 | 38080 ft | 462 kts | 154° |
| 2026-05-04 16:18 | 47.42022 | 47.65572 | 37858 ft | 469 kts | 154° |
| 2026-05-04 16:19 | 47.33393 | 47.72365 | 37986 ft | 470 kts | 154° |
| 2026-05-04 16:19 | 47.27595 | 47.76914 | 37961 ft | 473 kts | 154° |
| 2026-05-04 16:20 | 47.13062 | 47.88266 | 37969 ft | 474 kts | 154° |
| 2026-05-04 16:22 | 46.98454 | 47.99606 | 38005 ft | 475 kts | 154° |
| 2026-05-04 16:23 | 46.80850 | 48.13179 | 37981 ft | 476 kts | 154° |
| 2026-05-04 16:25 | 46.63156 | 48.26719 | 37977 ft | 476 kts | 154° |
| 2026-05-04 16:26 | 46.42620 | 48.42310 | 37922 ft | 476 kts | 154° |
| 2026-05-04 16:28 | 46.27949 | 48.53365 | 37916 ft | 475 kts | 154° |
| 2026-05-04 16:29 | 46.06567 | 48.65102 | 37942 ft | 470 kts | 166° |
| 2026-05-04 16:31 | 45.90787 | 48.71442 | 37910 ft | 470 kts | 166° |
| 2026-05-04 16:32 | 45.71711 | 48.74646 | 37935 ft | 465 kts | 187° |
| 2026-05-04 16:33 | 45.58757 | 48.72865 | 37903 ft | 466 kts | 186° |
| 2026-05-04 16:34 | 45.49039 | 48.71584 | 37904 ft | 466 kts | 186° |
| 2026-05-04 16:35 | 45.29724 | 48.69051 | 37901 ft | 465 kts | 186° |
| 2026-05-04 16:36 | 45.20027 | 48.67786 | 37899 ft | 465 kts | 186° |
| 2026-05-04 16:37 | 45.10353 | 48.66529 | 37900 ft | 465 kts | 186° |
| 2026-05-04 16:38 | 44.97449 | 48.64858 | 37921 ft | 464 kts | 186° |
| 2026-05-04 16:39 | 44.81354 | 48.62785 | 37916 ft | 464 kts | 186° |
| 2026-05-04 16:40 | 44.68470 | 48.61134 | 37920 ft | 465 kts | 186° |
| 2026-05-04 16:41 | 44.52332 | 48.59076 | 37941 ft | 465 kts | 186° |
| 2026-05-04 16:43 | 44.36189 | 48.57029 | 37920 ft | 465 kts | 186° |
| 2026-05-04 16:43 | 44.26545 | 48.55811 | 37919 ft | 466 kts | 186° |
| 2026-05-04 16:45 | 44.07129 | 48.53371 | 37916 ft | 465 kts | 186° |
| 2026-05-04 16:46 | 43.91001 | 48.51358 | 37904 ft | 465 kts | 186° |
| 2026-05-04 16:47 | 43.78074 | 48.49751 | 37925 ft | 465 kts | 187° |
| 2026-05-04 16:48 | 43.65138 | 48.48150 | 37914 ft | 466 kts | 187° |
| 2026-05-04 16:49 | 43.52184 | 48.46555 | 37909 ft | 466 kts | 187° |
| 2026-05-04 16:50 | 43.39294 | 48.44974 | 37923 ft | 466 kts | 187° |
| 2026-05-04 16:51 | 43.29565 | 48.43773 | 37909 ft | 466 kts | 188° |
| 2026-05-04 16:51 | 43.23653 | 48.40531 | 37935 ft | 460 kts | 218° |
| 2026-05-04 16:52 | 43.19914 | 48.33522 | 37905 ft | 465 kts | 249° |
| 2026-05-04 16:53 | 43.16728 | 48.20903 | 37911 ft | 467 kts | 246° |
| 2026-05-04 16:54 | 43.11904 | 48.04317 | 37918 ft | 470 kts | 246° |
| 2026-05-04 16:55 | 43.04579 | 47.79398 | 37918 ft | 471 kts | 246° |
| 2026-05-04 16:56 | 42.98433 | 47.58673 | 37944 ft | 472 kts | 246° |
| 2026-05-04 16:57 | 42.94709 | 47.46200 | 37923 ft | 474 kts | 246° |
| 2026-05-04 16:58 | 42.89708 | 47.29538 | 37926 ft | 475 kts | 246° |
| 2026-05-04 17:00 | 42.82133 | 47.04510 | 37966 ft | 477 kts | 246° |
| 2026-05-04 17:01 | 42.75755 | 46.83619 | 37955 ft | 477 kts | 245° |
| 2026-05-04 17:02 | 42.70650 | 46.67017 | 37997 ft | 475 kts | 245° |
| 2026-05-04 17:03 | 42.66814 | 46.54614 | 37999 ft | 473 kts | 245° |
| 2026-05-04 17:03 | 42.62977 | 46.42262 | 38006 ft | 472 kts | 245° |
| 2026-05-04 17:04 | 42.60947 | 46.33824 | 37997 ft | 475 kts | 262° |
| 2026-05-04 17:04 | 42.61282 | 46.24858 | 38060 ft | 477 kts | 268° |
| 2026-05-04 17:05 | 42.61366 | 46.06783 | 38027 ft | 479 kts | 266° |
| 2026-05-04 17:06 | 42.61374 | 45.93191 | 38007 ft | 478 kts | 266° |
| 2026-05-04 17:07 | 42.61368 | 45.81150 | 38037 ft | 478 kts | 266° |
| 2026-05-04 17:07 | 42.61352 | 45.70641 | 38031 ft | 478 kts | 266° |
| 2026-05-04 17:08 | 42.61317 | 45.57059 | 38010 ft | 479 kts | 266° |
| 2026-05-04 17:09 | 42.61285 | 45.48062 | 37984 ft | 479 kts | 266° |
| 2026-05-04 17:09 | 42.61247 | 45.38975 | 37986 ft | 480 kts | 266° |
| 2026-05-04 17:10 | 42.61117 | 45.16369 | 38008 ft | 480 kts | 265° |
| 2026-05-04 17:11 | 42.61054 | 45.07275 | 38013 ft | 480 kts | 265° |
| 2026-05-04 17:12 | 42.60944 | 44.93658 | 37976 ft | 482 kts | 265° |
| 2026-05-04 17:13 | 42.60724 | 44.70966 | 38052 ft | 482 kts | 265° |
| 2026-05-04 17:14 | 42.60517 | 44.52736 | 38098 ft | 482 kts | 265° |
| 2026-05-04 17:15 | 42.60341 | 44.39066 | 38109 ft | 483 kts | 265° |
| 2026-05-04 17:16 | 42.60081 | 44.20775 | 38076 ft | 485 kts | 265° |
| 2026-05-04 17:17 | 42.59791 | 44.02409 | 38014 ft | 486 kts | 265° |
| 2026-05-04 17:18 | 42.59473 | 43.84090 | 37976 ft | 487 kts | 265° |
| 2026-05-04 17:19 | 42.59124 | 43.65693 | 38023 ft | 486 kts | 265° |
| 2026-05-04 17:20 | 42.58746 | 43.47350 | 37958 ft | 488 kts | 265° |
| 2026-05-04 17:20 | 42.58443 | 43.33524 | 37940 ft | 489 kts | 264° |
| 2026-05-04 17:21 | 42.58010 | 43.15082 | 37942 ft | 489 kts | 264° |
| 2026-05-04 17:22 | 42.57785 | 43.05899 | 37899 ft | 490 kts | 264° |
| 2026-05-04 17:23 | 42.57307 | 42.87410 | 38024 ft | 489 kts | 264° |
| 2026-05-04 17:24 | 42.56930 | 42.73516 | 38008 ft | 491 kts | 264° |
| 2026-05-04 17:25 | 42.56398 | 42.55001 | 37969 ft | 493 kts | 264° |
| 2026-05-04 17:26 | 42.55835 | 42.36385 | 37975 ft | 493 kts | 264° |
| 2026-05-04 17:27 | 42.55090 | 42.13127 | 37916 ft | 495 kts | 264° |
| 2026-05-04 17:27 | 42.54789 | 42.04049 | 37832 ft | 464 kts | 264° |
| 2026-05-04 17:28 | 42.54489 | 41.95345 | 36287 ft | 463 kts | 263° |
| 2026-05-04 17:29 | 42.54021 | 41.82142 | 35946 ft | 480 kts | 263° |
| 2026-05-04 17:29 | 42.53534 | 41.68667 | 35856 ft | 464 kts | 263° |
| 2026-05-04 17:31 | 42.52703 | 41.46831 | 35869 ft | 481 kts | 264° |
| 2026-05-04 17:31 | 42.52173 | 41.33366 | 35873 ft | 470 kts | 263° |
| 2026-05-04 17:32 | 42.51813 | 41.24464 | 35863 ft | 471 kts | 263° |
| 2026-05-04 17:33 | 42.51075 | 41.06745 | 35884 ft | 471 kts | 263° |
| 2026-05-04 17:34 | 42.50308 | 40.88977 | 35878 ft | 472 kts | 263° |
| 2026-05-04 17:35 | 42.49309 | 40.66738 | 35881 ft | 474 kts | 263° |
| 2026-05-04 17:36 | 42.48895 | 40.57802 | 35870 ft | 475 kts | 263° |
| 2026-05-04 17:36 | 42.48477 | 40.48891 | 35872 ft | 475 kts | 263° |
| 2026-05-04 17:37 | 42.48047 | 40.39928 | 35902 ft | 475 kts | 264° |
| 2026-05-04 17:37 | 42.47614 | 40.30995 | 35867 ft | 474 kts | 263° |
| 2026-05-04 17:38 | 42.47170 | 40.22029 | 35855 ft | 476 kts | 263° |
| 2026-05-04 17:38 | 42.46725 | 40.13134 | 35873 ft | 476 kts | 263° |
| 2026-05-04 17:39 | 42.46035 | 39.99709 | 35866 ft | 475 kts | 263° |
| 2026-05-04 17:39 | 42.45567 | 39.90725 | 35874 ft | 476 kts | 263° |
| 2026-05-04 17:40 | 42.45094 | 39.81788 | 35835 ft | 478 kts | 263° |
| 2026-05-04 17:40 | 42.44613 | 39.72828 | 35883 ft | 477 kts | 263° |
| 2026-05-04 17:41 | 42.44121 | 39.63806 | 35877 ft | 476 kts | 263° |
| 2026-05-04 17:41 | 42.43627 | 39.54863 | 35866 ft | 478 kts | 263° |
| 2026-05-04 17:42 | 42.43122 | 39.45869 | 35865 ft | 477 kts | 263° |
| 2026-05-04 17:42 | 42.42613 | 39.36931 | 35873 ft | 477 kts | 263° |
| 2026-05-04 17:43 | 42.42091 | 39.27886 | 35881 ft | 479 kts | 263° |
| 2026-05-04 17:43 | 42.41568 | 39.18921 | 35872 ft | 478 kts | 263° |
| 2026-05-04 17:44 | 42.41037 | 39.09971 | 35875 ft | 479 kts | 263° |
| 2026-05-04 17:44 | 42.40493 | 39.00928 | 35878 ft | 478 kts | 263° |
| 2026-05-04 17:45 | 42.39949 | 38.91977 | 35879 ft | 478 kts | 263° |
| 2026-05-04 17:45 | 42.39397 | 38.83018 | 35876 ft | 478 kts | 263° |
| 2026-05-04 17:46 | 42.38838 | 38.74056 | 35895 ft | 478 kts | 263° |
| 2026-05-04 17:46 | 42.38272 | 38.65105 | 35885 ft | 477 kts | 263° |
| 2026-05-04 17:47 | 42.37694 | 38.56087 | 35893 ft | 480 kts | 263° |
| 2026-05-04 17:47 | 42.37113 | 38.47108 | 35900 ft | 478 kts | 263° |
| 2026-05-04 17:48 | 42.36527 | 38.38191 | 35891 ft | 479 kts | 263° |
| 2026-05-04 17:48 | 42.35932 | 38.29224 | 35916 ft | 478 kts | 263° |
| 2026-05-04 17:49 | 42.35326 | 38.20200 | 35873 ft | 479 kts | 263° |
| 2026-05-04 17:49 | 42.34719 | 38.11269 | 35918 ft | 478 kts | 263° |
| 2026-05-04 17:50 | 42.34100 | 38.02264 | 35894 ft | 477 kts | 263° |
| 2026-05-04 17:50 | 42.33477 | 37.93315 | 35904 ft | 479 kts | 263° |
| 2026-05-04 17:51 | 42.32845 | 37.84318 | 35901 ft | 479 kts | 263° |
| 2026-05-04 17:51 | 42.32211 | 37.75409 | 35912 ft | 478 kts | 263° |
| 2026-05-04 17:52 | 42.31563 | 37.66407 | 35920 ft | 480 kts | 263° |
| 2026-05-04 17:52 | 42.30911 | 37.57448 | 35894 ft | 479 kts | 263° |
| 2026-05-04 17:53 | 42.30250 | 37.48451 | 35906 ft | 480 kts | 263° |
| 2026-05-04 17:53 | 42.29582 | 37.39469 | 35911 ft | 479 kts | 263° |
| 2026-05-04 17:54 | 42.28911 | 37.30523 | 35911 ft | 481 kts | 263° |
| 2026-05-04 17:54 | 42.28228 | 37.21526 | 35913 ft | 481 kts | 263° |
| 2026-05-04 17:55 | 42.27540 | 37.12562 | 35910 ft | 480 kts | 263° |
| 2026-05-04 17:55 | 42.26841 | 37.03542 | 35913 ft | 481 kts | 263° |
| 2026-05-04 17:56 | 42.26138 | 36.94564 | 35904 ft | 482 kts | 263° |
| 2026-05-04 17:56 | 42.25424 | 36.85538 | 35897 ft | 482 kts | 263° |
| 2026-05-04 17:57 | 42.24707 | 36.76567 | 35901 ft | 481 kts | 263° |
| 2026-05-04 17:57 | 42.23978 | 36.67535 | 35912 ft | 482 kts | 263° |
| 2026-05-04 17:58 | 42.23248 | 36.58577 | 35901 ft | 482 kts | 263° |
| 2026-05-04 17:58 | 42.22502 | 36.49508 | 35895 ft | 485 kts | 263° |
| 2026-05-04 17:59 | 42.21754 | 36.40513 | 35916 ft | 484 kts | 263° |
| 2026-05-04 18:00 | 42.20615 | 36.26972 | 35904 ft | 484 kts | 262° |
| 2026-05-04 18:00 | 42.19841 | 36.17893 | 35901 ft | 484 kts | 263° |
| 2026-05-04 18:01 | 42.19065 | 36.08845 | 35885 ft | 487 kts | 263° |
| 2026-05-04 18:01 | 42.18278 | 35.99779 | 35923 ft | 486 kts | 263° |
| 2026-05-04 18:02 | 42.17082 | 35.86150 | 35928 ft | 487 kts | 263° |
| 2026-05-04 18:02 | 42.16282 | 35.77137 | 35921 ft | 484 kts | 263° |
| 2026-05-04 18:03 | 42.15471 | 35.68081 | 35932 ft | 485 kts | 263° |
| 2026-05-04 18:03 | 42.14652 | 35.59021 | 35931 ft | 487 kts | 263° |
| 2026-05-04 18:04 | 42.13827 | 35.49977 | 35937 ft | 485 kts | 263° |
| 2026-05-04 18:05 | 42.12575 | 35.36398 | 35936 ft | 486 kts | 263° |
| 2026-05-04 18:05 | 42.11733 | 35.27364 | 35932 ft | 487 kts | 263° |
| 2026-05-04 18:06 | 42.10452 | 35.13766 | 35951 ft | 487 kts | 263° |
| 2026-05-04 18:06 | 42.09589 | 35.04701 | 35947 ft | 487 kts | 263° |
| 2026-05-04 18:07 | 42.08717 | 34.95630 | 35950 ft | 486 kts | 263° |
| 2026-05-04 18:07 | 42.07839 | 34.86570 | 35922 ft | 487 kts | 263° |
| 2026-05-04 18:08 | 42.06955 | 34.77515 | 35917 ft | 489 kts | 263° |
| 2026-05-04 18:08 | 42.06062 | 34.68447 | 35939 ft | 487 kts | 263° |
| 2026-05-04 18:09 | 42.04252 | 34.50293 | 35923 ft | 490 kts | 263° |
| 2026-05-04 18:10 | 42.03339 | 34.41257 | 35946 ft | 489 kts | 263° |
| 2026-05-04 18:10 | 42.02414 | 34.32164 | 35929 ft | 489 kts | 263° |
| 2026-05-04 18:11 | 42.01479 | 34.23060 | 35908 ft | 491 kts | 263° |
| 2026-05-04 18:11 | 42.00539 | 34.13960 | 35933 ft | 489 kts | 263° |
| 2026-05-04 18:12 | 41.99594 | 34.04895 | 35921 ft | 489 kts | 263° |
| 2026-05-04 18:12 | 41.98638 | 33.95801 | 35946 ft | 490 kts | 263° |
| 2026-05-04 18:13 | 41.97680 | 33.86743 | 35945 ft | 492 kts | 263° |
| 2026-05-04 18:14 | 41.96220 | 33.73086 | 35952 ft | 490 kts | 263° |
| 2026-05-04 18:14 | 41.95240 | 33.64012 | 35941 ft | 491 kts | 264° |
| 2026-05-04 18:15 | 41.93261 | 33.45865 | 35921 ft | 489 kts | 264° |
| 2026-05-04 18:16 | 41.92258 | 33.36792 | 35919 ft | 488 kts | 264° |
| 2026-05-04 18:16 | 41.91257 | 33.27782 | 35901 ft | 489 kts | 263° |
| 2026-05-04 18:17 | 41.89738 | 33.14257 | 35926 ft | 488 kts | 264° |
| 2026-05-04 18:18 | 41.88199 | 33.00679 | 35912 ft | 489 kts | 264° |
| 2026-05-04 18:18 | 41.87172 | 32.91708 | 35961 ft | 487 kts | 264° |
| 2026-05-04 18:19 | 41.85615 | 32.78219 | 35908 ft | 487 kts | 264° |
| 2026-05-04 18:19 | 41.84560 | 32.69162 | 35893 ft | 488 kts | 264° |
| 2026-05-04 18:20 | 41.83504 | 32.60170 | 35889 ft | 488 kts | 264° |
| 2026-05-04 18:20 | 41.82443 | 32.51187 | 35942 ft | 487 kts | 264° |
| 2026-05-04 18:21 | 41.81373 | 32.42203 | 35895 ft | 487 kts | 264° |
| 2026-05-04 18:21 | 41.80303 | 32.33260 | 35916 ft | 486 kts | 263° |
| 2026-05-04 18:22 | 41.79220 | 32.24290 | 35945 ft | 488 kts | 264° |
| 2026-05-04 18:22 | 41.78130 | 32.15306 | 35901 ft | 485 kts | 264° |
| 2026-05-04 18:23 | 41.77033 | 32.06330 | 35913 ft | 487 kts | 264° |
| 2026-05-04 18:23 | 41.75932 | 31.97388 | 35923 ft | 486 kts | 264° |
| 2026-05-04 18:24 | 41.74822 | 31.88426 | 35904 ft | 487 kts | 264° |
| 2026-05-04 18:24 | 41.73704 | 31.79459 | 35918 ft | 485 kts | 264° |
| 2026-05-04 18:25 | 41.72590 | 31.70601 | 35930 ft | 484 kts | 264° |
| 2026-05-04 18:25 | 41.71459 | 31.61639 | 35901 ft | 486 kts | 264° |
| 2026-05-04 18:26 | 41.70332 | 31.52779 | 35974 ft | 485 kts | 264° |
| 2026-05-04 18:26 | 41.69185 | 31.43809 | 35915 ft | 483 kts | 264° |
| 2026-05-04 18:27 | 41.68614 | 31.39372 | 36108 ft | 481 kts | 264° |
| 2026-05-04 18:27 | 41.68045 | 31.34951 | 35696 ft | 490 kts | 263° |
| 2026-05-04 18:27 | 41.67467 | 31.30501 | 35940 ft | 482 kts | 263° |
| 2026-05-04 18:27 | 41.66886 | 31.26005 | 36214 ft | 489 kts | 263° |
| 2026-05-04 18:28 | 41.66299 | 31.21518 | 35769 ft | 488 kts | 263° |
| 2026-05-04 18:28 | 41.65720 | 31.17089 | 35995 ft | 481 kts | 263° |
| 2026-05-04 18:28 | 41.64552 | 31.08173 | 35942 ft | 485 kts | 263° |
| 2026-05-04 18:29 | 41.63383 | 30.99324 | 35925 ft | 484 kts | 263° |
| 2026-05-04 18:29 | 41.62202 | 30.90437 | 35950 ft | 484 kts | 264° |
| 2026-05-04 18:30 | 41.60419 | 30.77124 | 35935 ft | 484 kts | 263° |
| 2026-05-04 18:31 | 41.59213 | 30.68274 | 35959 ft | 485 kts | 262° |
| 2026-05-04 18:31 | 41.57841 | 30.59465 | 35950 ft | 483 kts | 263° |
| 2026-05-04 18:32 | 41.56493 | 30.50671 | 35954 ft | 485 kts | 262° |
| 2026-05-04 18:32 | 41.55117 | 30.41903 | 35972 ft | 483 kts | 262° |
| 2026-05-04 18:33 | 41.53737 | 30.33161 | 35957 ft | 482 kts | 261° |
| 2026-05-04 18:33 | 41.52335 | 30.24338 | 35968 ft | 484 kts | 262° |
| 2026-05-04 18:34 | 41.50938 | 30.15586 | 36017 ft | 483 kts | 262° |
| 2026-05-04 18:34 | 41.49535 | 30.06854 | 36003 ft | 484 kts | 262° |
| 2026-05-04 18:35 | 41.48118 | 29.98064 | 36003 ft | 483 kts | 262° |
| 2026-05-04 18:35 | 41.46711 | 29.89390 | 35997 ft | 482 kts | 262° |
| 2026-05-04 18:36 | 41.45287 | 29.80657 | 35993 ft | 482 kts | 262° |
| 2026-05-04 18:36 | 41.43854 | 29.71912 | 36004 ft | 480 kts | 262° |
| 2026-05-04 18:37 | 41.42426 | 29.63236 | 36029 ft | 482 kts | 262° |
| 2026-05-04 18:37 | 41.40985 | 29.54522 | 35999 ft | 480 kts | 262° |
| 2026-05-04 18:38 | 41.39536 | 29.45809 | 36003 ft | 482 kts | 262° |
| 2026-05-04 18:38 | 41.38085 | 29.37132 | 36040 ft | 482 kts | 262° |
| 2026-05-04 18:39 | 41.36617 | 29.28386 | 36035 ft | 482 kts | 261° |
| 2026-05-04 18:39 | 41.35154 | 29.19716 | 36030 ft | 480 kts | 261° |
| 2026-05-04 18:40 | 41.33678 | 29.11012 | 36045 ft | 482 kts | 261° |
| 2026-05-04 18:40 | 41.32202 | 29.02362 | 36044 ft | 481 kts | 261° |
| 2026-05-04 18:41 | 41.30711 | 28.93644 | 36030 ft | 480 kts | 261° |
| 2026-05-04 18:41 | 41.29227 | 28.85025 | 36037 ft | 481 kts | 261° |
| 2026-05-04 18:42 | 41.27726 | 28.76348 | 36042 ft | 481 kts | 261° |
| 2026-05-04 18:42 | 41.26222 | 28.67686 | 36048 ft | 481 kts | 261° |
| 2026-05-04 18:43 | 41.24719 | 28.59067 | 36058 ft | 479 kts | 261° |
| 2026-05-04 18:43 | 41.23204 | 28.50423 | 36043 ft | 480 kts | 261° |
| 2026-05-04 18:44 | 41.21684 | 28.41784 | 36060 ft | 480 kts | 261° |
| 2026-05-04 18:44 | 41.20158 | 28.33162 | 36054 ft | 480 kts | 261° |
| 2026-05-04 18:45 | 41.18632 | 28.24576 | 36054 ft | 480 kts | 261° |
| 2026-05-04 18:45 | 41.17092 | 28.15947 | 36055 ft | 480 kts | 261° |
| 2026-05-04 18:46 | 41.15560 | 28.07369 | 36074 ft | 479 kts | 261° |
| 2026-05-04 18:46 | 41.14014 | 27.98767 | 36065 ft | 478 kts | 261° |
| 2026-05-04 18:47 | 41.12469 | 27.90224 | 36060 ft | 478 kts | 261° |
| 2026-05-04 18:47 | 41.10910 | 27.81637 | 36072 ft | 479 kts | 260° |
| 2026-05-04 18:48 | 41.09349 | 27.73082 | 36069 ft | 478 kts | 260° |
| 2026-05-04 18:48 | 41.07790 | 27.64576 | 36082 ft | 477 kts | 260° |
| 2026-05-04 18:49 | 41.06221 | 27.56062 | 36059 ft | 476 kts | 260° |
| 2026-05-04 18:49 | 41.04636 | 27.47489 | 36069 ft | 477 kts | 260° |
| 2026-05-04 18:50 | 41.03067 | 27.39040 | 36085 ft | 476 kts | 260° |
| 2026-05-04 18:50 | 41.01477 | 27.30523 | 36071 ft | 476 kts | 259° |
| 2026-05-04 18:51 | 40.99887 | 27.22044 | 36073 ft | 477 kts | 259° |
| 2026-05-04 18:51 | 40.98282 | 27.13511 | 36068 ft | 477 kts | 259° |
| 2026-05-04 18:52 | 40.96679 | 27.05040 | 36082 ft | 475 kts | 259° |
| 2026-05-04 18:52 | 40.95065 | 26.96543 | 36070 ft | 474 kts | 259° |
| 2026-05-04 18:53 | 40.93444 | 26.88042 | 36075 ft | 474 kts | 259° |
| 2026-05-04 18:53 | 40.91827 | 26.79604 | 36072 ft | 474 kts | 259° |
| 2026-05-04 18:54 | 40.90208 | 26.71186 | 36073 ft | 472 kts | 259° |
| 2026-05-04 18:54 | 40.88594 | 26.62833 | 36061 ft | 472 kts | 259° |
| 2026-05-04 18:55 | 40.86964 | 26.54434 | 36069 ft | 471 kts | 259° |
| 2026-05-04 18:55 | 40.84513 | 26.41868 | 36070 ft | 470 kts | 259° |
| 2026-05-04 18:56 | 40.82883 | 26.33556 | 36072 ft | 469 kts | 258° |
| 2026-05-04 18:56 | 40.81240 | 26.25211 | 36070 ft | 468 kts | 258° |
| 2026-05-04 18:57 | 40.79604 | 26.16933 | 36065 ft | 468 kts | 258° |
| 2026-05-04 18:57 | 40.77955 | 26.08628 | 36063 ft | 467 kts | 258° |
| 2026-05-04 18:58 | 40.76301 | 26.00333 | 36060 ft | 467 kts | 258° |
| 2026-05-04 18:58 | 40.74641 | 25.92038 | 36059 ft | 467 kts | 258° |
| 2026-05-04 18:59 | 40.72984 | 25.83791 | 36063 ft | 467 kts | 258° |
| 2026-05-04 18:59 | 40.71314 | 25.75516 | 36061 ft | 466 kts | 258° |
| 2026-05-04 19:00 | 40.69646 | 25.67281 | 36064 ft | 466 kts | 258° |
| 2026-05-04 19:00 | 40.67970 | 25.59046 | 36069 ft | 466 kts | 258° |
| 2026-05-04 19:01 | 40.66285 | 25.50794 | 36069 ft | 465 kts | 258° |
| 2026-05-04 19:01 | 40.64590 | 25.42529 | 36078 ft | 465 kts | 258° |
| 2026-05-04 19:02 | 40.62900 | 25.34319 | 36070 ft | 465 kts | 257° |
| 2026-05-04 19:02 | 40.61211 | 25.26148 | 36068 ft | 466 kts | 257° |
| 2026-05-04 19:03 | 40.59504 | 25.17917 | 36072 ft | 465 kts | 257° |
| 2026-05-04 19:03 | 40.57797 | 25.09720 | 36071 ft | 465 kts | 257° |
| 2026-05-04 19:04 | 40.56085 | 25.01534 | 36078 ft | 464 kts | 257° |
| 2026-05-04 19:04 | 40.54371 | 24.93372 | 36080 ft | 464 kts | 257° |
| 2026-05-04 19:05 | 40.52649 | 24.85200 | 36074 ft | 464 kts | 257° |
| 2026-05-04 19:05 | 40.50927 | 24.77054 | 36079 ft | 463 kts | 257° |
| 2026-05-04 19:06 | 40.49196 | 24.68910 | 36087 ft | 462 kts | 257° |
| 2026-05-04 19:06 | 40.47458 | 24.60758 | 36085 ft | 462 kts | 257° |
| 2026-05-04 19:07 | 40.45721 | 24.52636 | 36078 ft | 462 kts | 257° |
| 2026-05-04 19:07 | 40.43991 | 24.44581 | 36089 ft | 461 kts | 257° |
| 2026-05-04 19:08 | 40.42243 | 24.36476 | 36085 ft | 461 kts | 257° |
| 2026-05-04 19:08 | 40.40493 | 24.28391 | 36076 ft | 461 kts | 257° |
| 2026-05-04 19:09 | 40.38736 | 24.20303 | 36077 ft | 460 kts | 257° |
| 2026-05-04 19:09 | 40.36979 | 24.12244 | 36079 ft | 459 kts | 257° |
| 2026-05-04 19:10 | 40.35522 | 24.05579 | 36080 ft | 459 kts | 257° |
| 2026-05-04 19:10 | 40.33459 | 23.96186 | 36084 ft | 458 kts | 257° |
| 2026-05-04 19:11 | 40.31693 | 23.88178 | 36075 ft | 458 kts | 257° |
| 2026-05-04 19:11 | 40.29915 | 23.80143 | 36075 ft | 459 kts | 257° |
| 2026-05-04 19:12 | 40.27246 | 23.68130 | 36079 ft | 458 kts | 257° |
| 2026-05-04 19:13 | 40.25467 | 23.60162 | 36080 ft | 457 kts | 257° |
| 2026-05-04 19:13 | 40.23679 | 23.52183 | 36072 ft | 457 kts | 257° |
| 2026-05-04 19:14 | 40.21887 | 23.44218 | 36071 ft | 456 kts | 257° |
| 2026-05-04 19:14 | 40.20089 | 23.36247 | 36072 ft | 457 kts | 257° |
| 2026-05-04 19:15 | 40.18290 | 23.28305 | 36074 ft | 457 kts | 257° |
| 2026-05-04 19:15 | 40.16170 | 23.18981 | 36071 ft | 456 kts | 257° |
| 2026-05-04 19:16 | 40.14665 | 23.12384 | 36074 ft | 456 kts | 257° |
| 2026-05-04 19:16 | 40.12842 | 23.04428 | 36076 ft | 454 kts | 257° |
| 2026-05-04 19:17 | 40.11024 | 22.96506 | 36070 ft | 455 kts | 257° |
| 2026-05-04 19:17 | 40.09210 | 22.88638 | 36086 ft | 453 kts | 257° |
| 2026-05-04 19:18 | 40.07383 | 22.80740 | 36083 ft | 454 kts | 257° |
| 2026-05-04 19:18 | 40.05557 | 22.72876 | 36083 ft | 454 kts | 257° |
| 2026-05-04 19:19 | 40.03715 | 22.64963 | 36105 ft | 454 kts | 258° |
| 2026-05-04 19:19 | 40.01884 | 22.57132 | 36102 ft | 453 kts | 258° |
| 2026-05-04 19:20 | 40.00036 | 22.49254 | 36102 ft | 454 kts | 258° |
| 2026-05-04 19:20 | 39.98213 | 22.41503 | 36124 ft | 454 kts | 258° |
| 2026-05-04 19:21 | 39.96372 | 22.33707 | 36139 ft | 451 kts | 258° |
| 2026-05-04 19:21 | 39.94509 | 22.25848 | 36117 ft | 451 kts | 258° |
| 2026-05-04 19:22 | 39.92655 | 22.18042 | 36130 ft | 453 kts | 258° |
| 2026-05-04 19:22 | 39.90796 | 22.10248 | 36151 ft | 452 kts | 258° |
| 2026-05-04 19:23 | 39.88918 | 22.02404 | 36121 ft | 451 kts | 258° |
| 2026-05-04 19:23 | 39.87059 | 21.94665 | 36143 ft | 450 kts | 258° |
| 2026-05-04 19:24 | 39.85186 | 21.86887 | 36151 ft | 450 kts | 258° |
| 2026-05-04 19:24 | 39.83310 | 21.79124 | 36136 ft | 449 kts | 258° |
| 2026-05-04 19:25 | 39.81427 | 21.71365 | 36153 ft | 450 kts | 258° |
| 2026-05-04 19:25 | 39.79549 | 21.63650 | 36161 ft | 449 kts | 258° |
| 2026-05-04 19:26 | 39.77657 | 21.55891 | 36169 ft | 449 kts | 258° |
| 2026-05-04 19:26 | 39.75772 | 21.48197 | 36160 ft | 448 kts | 258° |
| 2026-05-04 19:27 | 39.73872 | 21.40464 | 36172 ft | 448 kts | 258° |
| 2026-05-04 19:27 | 39.71978 | 21.32782 | 36171 ft | 447 kts | 258° |
| 2026-05-04 19:28 | 39.70081 | 21.25110 | 36183 ft | 447 kts | 258° |
| 2026-05-04 19:28 | 39.68174 | 21.17422 | 36180 ft | 448 kts | 258° |
| 2026-05-04 19:29 | 39.66257 | 21.09722 | 36186 ft | 447 kts | 258° |
| 2026-05-04 19:29 | 39.64339 | 21.02040 | 36173 ft | 447 kts | 258° |
| 2026-05-04 19:30 | 39.62421 | 20.94382 | 36188 ft | 446 kts | 258° |
| 2026-05-04 19:30 | 39.60496 | 20.86727 | 36161 ft | 446 kts | 258° |
| 2026-05-04 19:31 | 39.58584 | 20.79130 | 36167 ft | 446 kts | 258° |
| 2026-05-04 19:31 | 39.56646 | 20.71469 | 36166 ft | 446 kts | 258° |
| 2026-05-04 19:32 | 39.54722 | 20.63890 | 36159 ft | 445 kts | 258° |
| 2026-05-04 19:32 | 39.52785 | 20.56275 | 36160 ft | 446 kts | 258° |
| 2026-05-04 19:33 | 39.50841 | 20.48662 | 36155 ft | 445 kts | 258° |
| 2026-05-04 19:33 | 39.48889 | 20.41040 | 36150 ft | 445 kts | 258° |
| 2026-05-04 19:34 | 39.46933 | 20.33424 | 36146 ft | 444 kts | 257° |
| 2026-05-04 19:34 | 39.44993 | 20.25894 | 36143 ft | 443 kts | 257° |
| 2026-05-04 19:35 | 39.43031 | 20.18300 | 36147 ft | 445 kts | 257° |
| 2026-05-04 19:35 | 39.41063 | 20.10709 | 36142 ft | 444 kts | 257° |
| 2026-05-04 19:36 | 39.39106 | 20.03185 | 36136 ft | 442 kts | 257° |
| 2026-05-04 19:36 | 39.37141 | 19.95652 | 36137 ft | 443 kts | 258° |
| 2026-05-04 19:37 | 39.35159 | 19.88074 | 36137 ft | 442 kts | 258° |
| 2026-05-04 19:37 | 39.33187 | 19.80563 | 36135 ft | 443 kts | 258° |
| 2026-05-04 19:38 | 39.31214 | 19.73061 | 36136 ft | 442 kts | 258° |
| 2026-05-04 19:38 | 39.29218 | 19.65506 | 36137 ft | 441 kts | 258° |
| 2026-05-04 19:39 | 39.27240 | 19.58035 | 36133 ft | 440 kts | 258° |
| 2026-05-04 19:39 | 39.25263 | 19.50587 | 36131 ft | 440 kts | 258° |
| 2026-05-04 19:40 | 39.23268 | 19.43092 | 36133 ft | 440 kts | 258° |
| 2026-05-04 19:40 | 39.21276 | 19.35644 | 36129 ft | 440 kts | 258° |
| 2026-05-04 19:41 | 39.19284 | 19.28210 | 36136 ft | 440 kts | 257° |
| 2026-05-04 19:41 | 39.17274 | 19.20727 | 36138 ft | 439 kts | 257° |
| 2026-05-04 19:42 | 39.15264 | 19.13271 | 36136 ft | 440 kts | 257° |
| 2026-05-04 19:42 | 39.13256 | 19.05842 | 36133 ft | 439 kts | 257° |
| 2026-05-04 19:43 | 39.11249 | 18.98440 | 36129 ft | 437 kts | 258° |
| 2026-05-04 19:43 | 39.09246 | 18.91070 | 36134 ft | 436 kts | 258° |
| 2026-05-04 19:44 | 39.07231 | 18.83678 | 36131 ft | 437 kts | 257° |
| 2026-05-04 19:44 | 39.05213 | 18.76307 | 36130 ft | 436 kts | 258° |
| 2026-05-04 19:45 | 39.03186 | 18.68913 | 36127 ft | 436 kts | 258° |
| 2026-05-04 19:45 | 39.01178 | 18.61611 | 36123 ft | 435 kts | 258° |
| 2026-05-04 19:46 | 38.99150 | 18.54258 | 36133 ft | 433 kts | 258° |
| 2026-05-04 19:46 | 38.97126 | 18.46940 | 36132 ft | 434 kts | 258° |
| 2026-05-04 19:47 | 38.95100 | 18.39634 | 36118 ft | 434 kts | 258° |
| 2026-05-04 19:47 | 38.93058 | 18.32296 | 36135 ft | 434 kts | 257° |
| 2026-05-04 19:47 | 38.92042 | 18.28649 | 36258 ft | 437 kts | 258° |
| 2026-05-04 19:48 | 38.91013 | 18.24974 | 36061 ft | 430 kts | 258° |
| 2026-05-04 19:48 | 38.90017 | 18.21406 | 36204 ft | 429 kts | 258° |
| 2026-05-04 19:48 | 38.88998 | 18.17760 | 36069 ft | 434 kts | 258° |
| 2026-05-04 19:49 | 38.86954 | 18.10474 | 36112 ft | 431 kts | 258° |
| 2026-05-04 19:49 | 38.84922 | 18.03250 | 36136 ft | 431 kts | 258° |
| 2026-05-04 19:50 | 38.82874 | 17.95989 | 36124 ft | 433 kts | 258° |
| 2026-05-04 19:50 | 38.80827 | 17.88756 | 36081 ft | 430 kts | 258° |
| 2026-05-04 19:51 | 38.78768 | 17.81487 | 36101 ft | 433 kts | 258° |
| 2026-05-04 19:51 | 38.76724 | 17.74307 | 36132 ft | 431 kts | 258° |
| 2026-05-04 19:52 | 38.74663 | 17.67079 | 36134 ft | 431 kts | 258° |
| 2026-05-04 19:52 | 38.72598 | 17.59862 | 36109 ft | 430 kts | 258° |
| 2026-05-04 19:53 | 38.70536 | 17.52670 | 36086 ft | 431 kts | 258° |
| 2026-05-04 19:53 | 38.68463 | 17.45455 | 36110 ft | 430 kts | 258° |
| 2026-05-04 19:54 | 38.66401 | 17.38308 | 36136 ft | 430 kts | 258° |
| 2026-05-04 19:54 | 38.64323 | 17.31115 | 36121 ft | 431 kts | 257° |
| 2026-05-04 19:55 | 38.62232 | 17.23904 | 36110 ft | 433 kts | 257° |
| 2026-05-04 19:55 | 38.60129 | 17.16664 | 36125 ft | 431 kts | 257° |
| 2026-05-04 19:56 | 38.58044 | 17.09536 | 36127 ft | 424 kts | 256° |
| 2026-05-04 19:56 | 38.55993 | 17.02580 | 36096 ft | 410 kts | 256° |
| 2026-05-04 19:56 | 38.55021 | 16.99255 | 36115 ft | 391 kts | 258° |
| 2026-05-04 19:57 | 38.54093 | 16.96064 | 36074 ft | 371 kts | 258° |
| 2026-05-04 19:57 | 38.53212 | 16.93051 | 36097 ft | 350 kts | 258° |
| 2026-05-04 19:57 | 38.52384 | 16.90233 | 36089 ft | 331 kts | 258° |
| 2026-05-04 19:57 | 38.51593 | 16.87539 | 36085 ft | 312 kts | 259° |
| 2026-05-04 19:58 | 38.50859 | 16.85051 | 36086 ft | 294 kts | 260° |
| 2026-05-04 19:58 | 38.50159 | 16.82678 | 36089 ft | 275 kts | 260° |
| 2026-05-04 19:58 | 38.49497 | 16.80438 | 36067 ft | 257 kts | 261° |
| 2026-05-04 19:58 | 38.48867 | 16.78359 | 35768 ft | 252 kts | 260° |
| 2026-05-04 19:59 | 38.48524 | 16.77258 | 35398 ft | 256 kts | 259° |
| 2026-05-04 19:59 | 38.47882 | 16.75281 | 34638 ft | 267 kts | 258° |
| 2026-05-04 19:59 | 38.47095 | 16.73094 | 34095 ft | 269 kts | 255° |
| 2026-05-04 19:59 | 38.46216 | 16.71026 | 33842 ft | 264 kts | 251° |
| 2026-05-04 20:00 | 38.45908 | 16.70385 | 33749 ft | 263 kts | 250° |
| 2026-05-04 20:00 | 38.44850 | 16.68457 | 33294 ft | 267 kts | 244° |
| 2026-05-04 20:00 | 38.43165 | 16.66060 | 32566 ft | 278 kts | 235° |
| 2026-05-04 20:00 | 38.42193 | 16.64975 | 32272 ft | 281 kts | 230° |
| 2026-05-04 20:01 | 38.40548 | 16.63533 | 31890 ft | 286 kts | 221° |
| 2026-05-04 20:01 | 38.39984 | 16.63136 | 31751 ft | 288 kts | 218° |
| 2026-05-04 20:01 | 38.38418 | 16.62260 | 31354 ft | 295 kts | 209° |
| 2026-05-04 20:01 | 38.38406 | 16.62255 | 31351 ft | 295 kts | 209° |
| 2026-05-04 20:02 | 38.36811 | 16.61673 | 30934 ft | 304 kts | 201° |
| 2026-05-04 20:02 | 38.34683 | 16.61342 | 30433 ft | 312 kts | 192° |
| 2026-05-04 20:02 | 38.32888 | 16.61320 | 30126 ft | 312 kts | 185° |
| 2026-05-04 20:03 | 38.32648 | 16.61333 | 30091 ft | 311 kts | 185° |
| 2026-05-04 20:04 | 38.32571 | 16.61338 | 30080 ft | 311 kts | 184° |
| 2026-05-04 20:05 | 38.32562 | 16.61339 | 30079 ft | 311 kts | 184° |
| 2026-05-04 20:06 | 38.32379 | 16.61352 | 30053 ft | 311 kts | 184° |
| 2026-05-04 20:06 | 38.31375 | 16.61447 | 29919 ft | 309 kts | 183° |
| 2026-05-04 20:07 | 38.29232 | 16.61661 | 29279 ft | 313 kts | 185° |
| 2026-05-04 20:07 | 38.27092 | 16.61585 | 28533 ft | 300 kts | 201° |
| 2026-05-04 20:07 | 38.25183 | 16.60751 | 27685 ft | 286 kts | 217° |
| 2026-05-04 20:07 | 38.23461 | 16.59536 | 26890 ft | 273 kts | 226° |
| 2026-05-04 20:08 | 38.22309 | 16.57872 | 26020 ft | 241 kts | 253° |
| 2026-05-04 20:08 | 38.21576 | 16.56066 | 25211 ft | 221 kts | 255° |
| 2026-05-04 20:08 | 38.20669 | 16.54561 | 24491 ft | 216 kts | 234° |
| 2026-05-04 20:08 | 38.19664 | 16.53236 | 23745 ft | 202 kts | 242° |
| 2026-05-04 20:09 | 38.18766 | 16.51871 | 22646 ft | 207 kts | 244° |
| 2026-05-04 20:09 | 38.17948 | 16.50474 | 22169 ft | 183 kts | 246° |
| 2026-05-04 20:09 | 38.17187 | 16.49234 | 21510 ft | 183 kts | 227° |
| 2026-05-04 20:09 | 38.16162 | 16.48236 | 20731 ft | 186 kts | 231° |
| 2026-05-04 20:10 | 38.15305 | 16.47096 | 20112 ft | 173 kts | 239° |
| 2026-05-04 20:10 | 38.14542 | 16.45918 | 19201 ft | 184 kts | 244° |
| 2026-05-04 20:10 | 38.13823 | 16.44555 | 18039 ft | 201 kts | 245° |
| 2026-05-04 20:10 | 38.13038 | 16.43069 | 16898 ft | 207 kts | 242° |
| 2026-05-04 20:11 | 38.12261 | 16.41594 | 16111 ft | 194 kts | 244° |
| 2026-05-04 20:11 | 38.11607 | 16.40260 | 15653 ft | 173 kts | 247° |
| 2026-05-04 20:11 | 38.11050 | 16.39002 | 15164 ft | 162 kts | 244° |
| 2026-05-04 20:11 | 38.10245 | 16.38029 | 14617 ft | 163 kts | 222° |
| 2026-05-04 20:12 | 38.09259 | 16.37296 | 14004 ft | 166 kts | 212° |
| 2026-05-04 20:12 | 38.08341 | 16.36453 | 13254 ft | 167 kts | 231° |
| 2026-05-04 20:12 | 38.07400 | 16.35617 | 12602 ft | 167 kts | 236° |
| 2026-05-04 20:12 | 38.06724 | 16.34401 | 11404 ft | 186 kts | 248° |
| 2026-05-04 20:13 | 38.06189 | 16.32906 | 10375 ft | 191 kts | 251° |
| 2026-05-04 20:13 | 38.05780 | 16.31365 | 9463 ft | 188 kts | 257° |
| 2026-05-04 20:13 | 38.05423 | 16.29802 | 8588 ft | 185 kts | 257° |
| 2026-05-04 20:13 | 38.05062 | 16.28285 | 7792 ft | 180 kts | 255° |
| 2026-05-04 20:14 | 38.04655 | 16.26849 | 7240 ft | 162 kts | 249° |
| 2026-05-04 20:14 | 38.04474 | 16.26328 | 7188 ft | 147 kts | 247° |
| 2026-05-04 20:14 | 38.04116 | 16.25379 | 6957 ft | 136 kts | 245° |
| 2026-05-04 20:14 | 38.03679 | 16.24282 | 6434 ft | 143 kts | 244° |
| 2026-05-04 20:15 | 38.03231 | 16.23186 | 6073 ft | 139 kts | 243° |
| 2026-05-04 20:15 | 38.02782 | 16.22100 | 5641 ft | 140 kts | 243° |
| 2026-05-04 20:15 | 38.02327 | 16.21010 | 5254 ft | 138 kts | 243° |
| 2026-05-04 20:15 | 38.01878 | 16.19941 | 4846 ft | 138 kts | 243° |
| 2026-05-04 20:16 | 38.01423 | 16.18864 | 4451 ft | 137 kts | 243° |
| 2026-05-04 20:16 | 38.01163 | 16.18248 | 4223 ft | 137 kts | 243° |
| 2026-05-04 20:16 | 38.00716 | 16.17186 | 3826 ft | 136 kts | 243° |
| 2026-05-04 20:16 | 38.00276 | 16.16129 | 3428 ft | 136 kts | 243° |
| 2026-05-04 20:17 | 37.99838 | 16.15065 | 3048 ft | 134 kts | 243° |
| 2026-05-04 20:17 | 37.99412 | 16.14022 | 2667 ft | 133 kts | 243° |
| 2026-05-04 20:17 | 37.99262 | 16.13655 | 2530 ft | 133 kts | 243° |
| 2026-05-04 20:18 | 37.99258 | 16.13645 | 2526 ft | 133 kts | 243° |
| 2026-05-04 20:18 | 37.98832 | 16.12612 | 2140 ft | 132 kts | 243° |
| 2026-05-04 20:18 | 37.98813 | 16.12567 | 2124 ft | 132 kts | 243° |
| 2026-05-04 20:19 | 37.98406 | 16.11604 | 1777 ft | 131 kts | 243° |
| 2026-05-04 20:19 | 37.97961 | 16.10620 | 1446 ft | 128 kts | 243° |
| 2026-05-04 20:19 | 37.97335 | 16.09718 | 768 ft | 155 kts | 208° |
| 2026-05-04 20:20 | 37.96438 | 16.09651 | 253 ft | 11 kts | 115° |
| 2026-05-04 20:20 | 37.96434 | 16.09642 | 222 ft | 0 kts | 134° |
| 2026-05-04 20:20 | 37.96434 | 16.09641 | 222 ft | 0 kts | 134° |